Time;durP1;ratioP1;P1;durP2;ratioP2;P2;SDS_P1;SDS_P2;PMS_P1;PMS_P2;Temp;Humidity;BMP_temperature;BMP_pressure;BME280_temperature;BME280_humidity;BME280_pressure;Samples;Min_cycle;Max_cycle;Signal;HPM_P1;HPM_P2
2023/01/04 00:02:09;;;;;;;5.73;1.47;;;;;;;;;;5044602;28;20029;-76
2023/01/04 00:04:36;;;;;;;5.97;1.57;;;;;;;;;;5028529;28;20454;-76
2023/01/04 00:07:02;;;;;;;7.10;2.13;;;;;;;;;;5028678;28;20049;-75
2023/01/04 00:09:28;;;;;;;7.30;1.73;;;;;;;;;;5037373;28;20124;-76
2023/01/04 00:11:54;;;;;;;9.07;1.50;;;;;;;;;;5020819;28;21628;-76
2023/01/04 00:14:22;;;;;;;7.27;1.90;;;;;;;;;;5023655;28;20067;-75
2023/01/04 00:16:48;;;;;;;10.37;1.90;;;;;;;;;;5021273;28;20034;-75
2023/01/04 00:19:14;;;;;;;7.53;1.30;;;;;;;;;;5036931;28;20025;-74
2023/01/04 00:21:40;;;;;;;12.30;1.80;;;;;;;;;;5022821;28;20040;-75
2023/01/04 00:24:07;;;;;;;7.20;1.43;;;;;;;;;;5020080;28;20095;-76
2023/01/04 00:26:34;;;;;;;6.13;1.33;;;;;;;;;;5043169;28;20086;-74
2023/01/04 00:29:02;;;;;;;6.60;1.30;;;;;;;;;;5026243;28;21684;-76
2023/01/04 00:31:28;;;;;;;5.83;1.50;;;;;;;;;;5028027;28;20044;-75
2023/01/04 00:33:57;;;;;;;7.20;2.00;;;;;;;;;;5043510;28;20067;-76
2023/01/04 00:36:23;;;;;;;5.33;1.40;;;;;;;;;;5020520;28;20041;-76
2023/01/04 00:39:05;;;;;;;7.07;1.40;;;;;;;;;;5036180;28;20030;-75
2023/01/04 00:41:34;;;;;;;7.38;1.42;;;;;;;;;;5037444;28;20034;-76
2023/01/04 00:44:02;;;;;;;4.70;1.10;;;;;;;;;;5023610;28;20041;-75
2023/01/04 00:46:28;;;;;;;8.13;1.23;;;;;;;;;;5022736;28;20044;-76
2023/01/04 00:48:57;;;;;;;5.10;0.93;;;;;;;;;;5029705;28;20035;-74
2023/01/04 00:51:23;;;;;;;5.77;1.17;;;;;;;;;;5044404;28;20043;-74
2023/01/04 00:53:49;;;;;;;6.33;1.60;;;;;;;;;;5043407;28;20032;-75
2023/01/04 00:56:15;;;;;;;8.27;1.60;;;;;;;;;;5023594;28;20453;-75
2023/01/04 00:58:41;;;;;;;10.37;1.60;;;;;;;;;;5037299;28;20037;-75
2023/01/04 01:01:08;;;;;;;5.27;1.90;;;;;;;;;;5040363;28;20443;-75
2023/01/04 01:03:34;;;;;;;4.87;1.40;;;;;;;;;;5022205;28;20030;-75
2023/01/04 01:06:04;;;;;;;5.73;1.37;;;;;;;;;;5023465;28;20032;-75
2023/01/04 01:08:30;;;;;;;4.93;1.10;;;;;;;;;;5038652;28;20049;-75
2023/01/04 01:11:02;;;;;;;10.70;1.43;;;;;;;;;;5036672;28;20022;-76
2023/01/04 01:13:28;;;;;;;7.80;1.40;;;;;;;;;;5022331;28;20099;-75
2023/01/04 01:15:54;;;;;;;7.07;1.40;;;;;;;;;;5042726;28;20033;-76
2023/01/04 01:18:20;;;;;;;12.97;1.77;;;;;;;;;;5039111;28;20030;-76
2023/01/04 01:20:46;;;;;;;11.53;2.17;;;;;;;;;;5035276;28;20025;-76
2023/01/04 01:23:13;;;;;;;8.80;1.67;;;;;;;;;;5042802;28;20033;-75
2023/01/04 01:25:42;;;;;;;6.37;1.33;;;;;;;;;;5026991;28;20041;-75
2023/01/04 01:28:09;;;;;;;5.43;1.07;;;;;;;;;;5027855;28;20044;-74
2023/01/04 01:30:39;;;;;;;6.70;1.53;;;;;;;;;;5023009;28;20110;-76
2023/01/04 01:33:05;;;;;;;11.87;2.10;;;;;;;;;;5038119;28;20361;-76
2023/01/04 01:35:32;;;;;;;12.77;1.47;;;;;;;;;;5037346;28;20052;-76
2023/01/04 01:37:58;;;;;;;8.50;2.00;;;;;;;;;;5043044;28;20819;-75
2023/01/04 01:40:24;;;;;;;10.27;1.77;;;;;;;;;;5044988;28;20894;-75
2023/01/04 01:42:50;;;;;;;11.30;2.00;;;;;;;;;;5045823;28;20036;-76
2023/01/04 01:45:31;;;;;;;10.87;2.00;;;;;;;;;;5046956;28;20042;-76
2023/01/04 01:48:17;;;;;;;9.10;1.63;;;;;;;;;;5041264;28;20029;-75
2023/01/04 01:50:49;;;;;;;8.00;2.10;;;;;;;;;;5041823;28;20033;-74
2023/01/04 01:53:15;;;;;;;8.95;1.65;;;;;;;;;;5043224;28;20468;-75
2023/01/04 01:55:43;;;;;;;7.90;1.97;;;;;;;;;;5024042;28;20034;-75
2023/01/04 01:58:11;;;;;;;6.10;1.53;;;;;;;;;;5047027;28;20095;-75
2023/01/04 02:00:37;;;;;;;9.93;1.87;;;;;;;;;;5039354;28;20824;-75
2023/01/04 02:03:12;;;;;;;5.60;1.10;;;;;;;;;;5026420;28;20056;-76
2023/01/04 02:05:40;;;;;;;10.83;1.83;;;;;;;;;;5046706;28;20061;-76
2023/01/04 02:08:07;;;;;;;5.33;1.20;;;;;;;;;;5030977;28;20033;-75
2023/01/04 02:10:33;;;;;;;8.50;1.80;;;;;;;;;;5030645;28;20036;-76
2023/01/04 02:13:02;;;;;;;6.47;1.40;;;;;;;;;;5030598;28;20095;-75
2023/01/04 02:15:30;;;;;;;9.37;1.77;;;;;;;;;;5046010;28;20116;-76
2023/01/04 02:18:07;;;;;;;4.20;1.53;;;;;;;;;;5039927;28;20033;-76
2023/01/04 02:20:41;;;;;;;7.80;1.10;;;;;;;;;;5031367;28;20101;-76
2023/01/04 02:23:22;;;;;;;5.67;1.10;;;;;;;;;;5030578;28;20044;-75
2023/01/04 02:26:18;;;;;;;6.77;1.80;;;;;;;;;;5031395;28;20017;-75
2023/01/04 02:28:53;;;;;;;5.23;1.53;;;;;;;;;;5029677;28;20098;-76
2023/01/04 02:31:19;;;;;;;5.17;1.27;;;;;;;;;;5045187;28;20025;-76
2023/01/04 02:33:51;;;;;;;10.03;1.93;;;;;;;;;;5030549;28;20052;-76
2023/01/04 02:36:25;;;;;;;6.75;1.50;;;;;;;;;;5047076;28;20036;-76
2023/01/04 02:39:12;;;;;;;5.03;1.30;;;;;;;;;;5022874;28;21736;-75
2023/01/04 02:41:45;;;;;;;7.73;1.83;;;;;;;;;;5047355;28;20472;-77
2023/01/04 02:47:16;;;;;;;3.97;1.00;;;;;;;;;;5031000;28;20072;-74
2023/01/04 02:52:27;;;;;;;7.63;1.30;;;;;;;;;;5029161;28;20045;-75
2023/01/04 02:54:55;;;;;;;7.53;1.30;;;;;;;;;;5030406;28;20029;-75
2023/01/04 02:57:50;;;;;;;4.23;1.00;;;;;;;;;;5041357;28;20056;-75
2023/01/04 03:06:13;;;;;;;4.63;1.03;;;;;;;;;;5017850;28;20136;-75
2023/01/04 03:06:23;;;;;;;9.00;1.00;;;;;;;;;;5032385;28;20095;-76
2023/01/04 03:08:49;;;;;;;5.27;0.63;;;;;;;;;;5027096;28;20040;-75
2023/01/04 03:14:04;;;;;;;4.60;0.77;;;;;;;;;;5030891;28;20071;-75
2023/01/04 03:16:33;;;;;;;3.90;0.70;;;;;;;;;;5048222;28;20037;-75
2023/01/04 03:19:03;;;;;;;1.83;0.50;;;;;;;;;;5030648;28;20108;-75
2023/01/04 03:21:29;;;;;;;0.50;0.23;;;;;;;;;;5026241;28;20074;-77
2023/01/04 03:35:26;;;;;;;1.73;0.47;;;;;;;;;;5030881;28;20056;-76
2023/01/04 03:49:24;;;;;;;0.30;0.20;;;;;;;;;;5029751;28;20112;-75
2023/01/04 03:51:55;;;;;;;4.70;0.37;;;;;;;;;;5029049;28;20091;-75
2023/01/04 03:54:41;;;;;;;0.73;0.30;;;;;;;;;;5030070;28;21587;-75
2023/01/04 03:57:08;;;;;;;1.33;0.20;;;;;;;;;;5037293;28;20090;-75
2023/01/04 03:59:41;;;;;;;0.97;0.23;;;;;;;;;;5038225;28;20060;-76
2023/01/04 04:02:12;;;;;;;0.60;0.20;;;;;;;;;;5028939;28;20036;-75
2023/01/04 04:10:11;;;;;;;1.13;0.30;;;;;;;;;;5028874;28;20382;-74
2023/01/04 04:12:37;;;;;;;1.37;0.20;;;;;;;;;;5024379;28;20041;-76
2023/01/04 04:15:03;;;;;;;0.30;0.30;;;;;;;;;;5045031;28;20033;-75
2023/01/04 04:17:29;;;;;;;0.37;0.10;;;;;;;;;;5024765;28;20044;-75
2023/01/04 04:19:55;;;;;;;0.10;0.10;;;;;;;;;;5029454;28;20496;-77
2023/01/04 04:22:21;;;;;;;0.23;0.20;;;;;;;;;;5026944;28;20489;-76
2023/01/04 04:24:47;;;;;;;0.43;0.27;;;;;;;;;;5029670;28;20021;-76
2023/01/04 04:27:15;;;;;;;2.13;0.30;;;;;;;;;;5044482;28;20034;-75
2023/01/04 04:29:41;;;;;;;0.10;0.10;;;;;;;;;;5028632;28;20049;-75
2023/01/04 04:32:10;;;;;;;1.50;0.23;;;;;;;;;;5028269;28;20037;-76
2023/01/04 04:34:36;;;;;;;0.20;0.10;;;;;;;;;;5023166;28;20085;-76
2023/01/04 04:37:02;;;;;;;0.70;0.17;;;;;;;;;;5045094;28;20048;-75
2023/01/04 04:39:28;;;;;;;2.20;0.30;;;;;;;;;;5043992;28;20021;-75
2023/01/04 04:41:56;;;;;;;0.10;0.10;;;;;;;;;;5044630;28;20060;-76
2023/01/04 04:44:22;;;;;;;0.23;0.17;;;;;;;;;;5039498;28;20033;-76
2023/01/04 04:46:49;;;;;;;0.50;0.30;;;;;;;;;;5043442;28;20064;-74
2023/01/04 04:49:18;;;;;;;0.20;0.20;;;;;;;;;;5044412;28;20091;-76
2023/01/04 04:51:44;;;;;;;0.30;0.10;;;;;;;;;;5028836;28;20029;-76
2023/01/04 04:54:11;;;;;;;0.10;0.10;;;;;;;;;;5037459;28;20029;-75
2023/01/04 04:56:37;;;;;;;1.80;0.20;;;;;;;;;;5044513;28;20033;-76
2023/01/04 04:59:04;;;;;;;0.97;0.20;;;;;;;;;;5028930;28;20530;-75
2023/01/04 05:01:30;;;;;;;2.37;0.20;;;;;;;;;;5043274;28;20041;-76
2023/01/04 05:03:56;;;;;;;0.20;0.10;;;;;;;;;;5026209;28;20619;-75
2023/01/04 05:06:22;;;;;;;0.73;0.20;;;;;;;;;;5028380;28;20050;-76
2023/01/04 05:08:48;;;;;;;1.07;0.20;;;;;;;;;;5036416;28;20033;-75
2023/01/04 05:11:14;;;;;;;0.20;0.10;;;;;;;;;;5028899;28;20048;-76
2023/01/04 05:13:43;;;;;;;1.20;0.20;;;;;;;;;;5038677;28;20442;-76
2023/01/04 05:16:09;;;;;;;2.43;0.30;;;;;;;;;;5030197;28;20045;-76
2023/01/04 05:18:35;;;;;;;0.33;0.20;;;;;;;;;;5033006;28;20029;-75
2023/01/04 05:21:04;;;;;;;1.53;0.20;;;;;;;;;;5025406;28;20033;-74
2023/01/04 05:23:30;;;;;;;0.63;0.10;;;;;;;;;;5025224;28;20549;-76
2023/01/04 05:26:00;;;;;;;1.27;0.10;;;;;;;;;;5043910;28;20082;-75
2023/01/04 05:28:26;;;;;;;0.40;0.17;;;;;;;;;;5051196;28;20033;-74
2023/01/04 05:30:54;;;;;;;1.83;0.30;;;;;;;;;;5032626;28;20052;-77
2023/01/04 05:33:24;;;;;;;2.70;0.30;;;;;;;;;;5028801;28;20113;-75
2023/01/04 05:35:51;;;;;;;0.37;0.10;;;;;;;;;;5044422;28;20033;-74
2023/01/04 05:38:17;;;;;;;0.30;0.20;;;;;;;;;;5028820;28;20041;-76
2023/01/04 05:40:43;;;;;;;0.20;0.10;;;;;;;;;;5047367;28;20053;-75
2023/01/04 05:43:09;;;;;;;0.40;0.20;;;;;;;;;;5028046;28;20040;-76
2023/01/04 05:45:35;;;;;;;0.30;0.27;;;;;;;;;;5031694;28;20128;-77
2023/01/04 05:48:01;;;;;;;0.10;0.10;;;;;;;;;;5028407;28;20096;-75
2023/01/04 05:50:28;;;;;;;1.50;0.30;;;;;;;;;;5028858;28;20450;-75
2023/01/04 05:52:56;;;;;;;0.87;0.20;;;;;;;;;;5032187;28;20452;-75
2023/01/04 05:55:23;;;;;;;0.50;0.20;;;;;;;;;;5046763;28;20037;-75
2023/01/04 05:57:50;;;;;;;0.50;0.13;;;;;;;;;;5027982;28;20021;-74
2023/01/04 06:00:18;;;;;;;0.30;0.20;;;;;;;;;;5024223;28;20148;-75
2023/01/04 06:02:44;;;;;;;0.50;0.20;;;;;;;;;;5041150;28;20029;-75
2023/01/04 06:05:11;;;;;;;0.43;0.10;;;;;;;;;;5031244;28;20034;-75
2023/01/04 06:07:38;;;;;;;0.10;0.10;;;;;;;;;;5046945;28;20120;-74
2023/01/04 06:10:05;;;;;;;0.10;0.10;;;;;;;;;;5041313;28;20029;-76
2023/01/04 06:12:31;;;;;;;2.33;0.20;;;;;;;;;;5040795;28;20362;-75
2023/01/04 06:14:59;;;;;;;0.10;0.10;;;;;;;;;;5025319;28;20026;-76
2023/01/04 06:17:25;;;;;;;0.50;0.20;;;;;;;;;;5026208;28;20077;-75
2023/01/04 06:19:56;;;;;;;0.67;0.10;;;;;;;;;;5025655;28;20049;-76
2023/01/04 06:22:22;;;;;;;0.47;0.40;;;;;;;;;;5031012;28;20034;-76
2023/01/04 06:24:48;;;;;;;0.40;0.20;;;;;;;;;;5025941;28;20705;-75
2023/01/04 06:27:14;;;;;;;0.20;0.20;;;;;;;;;;5038866;28;20087;-75
2023/01/04 06:29:40;;;;;;;0.23;0.13;;;;;;;;;;5022835;28;20034;-76
2023/01/04 06:32:06;;;;;;;0.57;0.20;;;;;;;;;;5024460;28;21784;-77
2023/01/04 06:34:32;;;;;;;0.23;0.20;;;;;;;;;;5030821;28;20033;-76
2023/01/04 06:36:58;;;;;;;1.07;0.20;;;;;;;;;;5040396;28;20041;-76
2023/01/04 06:39:27;;;;;;;0.67;0.20;;;;;;;;;;5026145;28;20030;-74
2023/01/04 06:41:53;;;;;;;0.50;0.20;;;;;;;;;;5029832;28;20037;-75
2023/01/04 06:44:19;;;;;;;0.60;0.20;;;;;;;;;;5023735;28;20123;-76
2023/01/04 06:46:45;;;;;;;1.17;0.20;;;;;;;;;;5039766;28;20029;-76
2023/01/04 06:49:11;;;;;;;2.73;0.10;;;;;;;;;;5023633;28;20057;-75
2023/01/04 06:51:37;;;;;;;0.20;0.20;;;;;;;;;;5029817;28;20038;-75
2023/01/04 06:54:06;;;;;;;0.60;0.30;;;;;;;;;;5030850;28;20048;-75
2023/01/04 06:56:32;;;;;;;0.80;0.20;;;;;;;;;;5030297;28;20571;-75
2023/01/04 06:59:00;;;;;;;0.17;0.17;;;;;;;;;;5045147;28;20052;-76
2023/01/04 07:01:27;;;;;;;0.17;0.10;;;;;;;;;;5045245;28;20488;-76
2023/01/04 07:03:53;;;;;;;0.50;0.20;;;;;;;;;;5026705;28;20129;-75
2023/01/04 07:06:19;;;;;;;1.33;0.10;;;;;;;;;;5039768;28;20116;-75
2023/01/04 07:08:45;;;;;;;0.83;0.30;;;;;;;;;;5039317;28;20044;-76
2023/01/04 07:11:11;;;;;;;0.23;0.20;;;;;;;;;;5030199;28;20040;-75
2023/01/04 07:13:37;;;;;;;0.20;0.20;;;;;;;;;;5029663;28;20029;-76
2023/01/04 07:16:05;;;;;;;3.50;0.40;;;;;;;;;;5038839;28;20037;-75
2023/01/04 07:18:31;;;;;;;0.60;0.20;;;;;;;;;;5045809;28;20029;-76
2023/01/04 07:20:59;;;;;;;0.60;0.30;;;;;;;;;;5030402;28;20052;-76
2023/01/04 07:23:25;;;;;;;0.10;0.10;;;;;;;;;;5038790;28;20021;-75
2023/01/04 07:25:51;;;;;;;0.17;0.13;;;;;;;;;;5029824;28;20511;-74
2023/01/04 07:29:13;;;;;;;0.40;0.30;;;;;;;;;;5032388;28;20099;-76
2023/01/04 07:31:07;;;;;;;1.00;0.40;;;;;;;;;;5030592;28;20046;-76
2023/01/04 07:33:34;;;;;;;0.40;0.20;;;;;;;;;;5041108;28;20071;-76
2023/01/04 07:36:06;;;;;;;0.60;0.20;;;;;;;;;;5030073;28;20091;-76
2023/01/04 07:38:33;;;;;;;0.93;0.30;;;;;;;;;;5024339;28;20044;-75
2023/01/04 07:40:59;;;;;;;0.60;0.20;;;;;;;;;;5045796;28;20029;-75
2023/01/04 07:43:25;;;;;;;0.30;0.10;;;;;;;;;;5047373;28;20060;-75
2023/01/04 07:45:51;;;;;;;0.53;0.30;;;;;;;;;;5030567;28;20037;-76
2023/01/04 07:48:17;;;;;;;0.80;0.40;;;;;;;;;;5049506;28;20442;-75
2023/01/04 07:50:44;;;;;;;1.70;0.40;;;;;;;;;;5038962;28;20112;-76
2023/01/04 07:53:11;;;;;;;1.03;0.20;;;;;;;;;;5041158;28;20546;-76
2023/01/04 07:55:37;;;;;;;0.30;0.10;;;;;;;;;;5040977;28;20141;-75
2023/01/04 07:58:03;;;;;;;0.40;0.20;;;;;;;;;;5038808;28;20088;-76
2023/01/04 08:00:29;;;;;;;1.47;0.20;;;;;;;;;;5049405;28;20547;-76
2023/01/04 08:02:55;;;;;;;0.10;0.10;;;;;;;;;;5032385;28;20032;-76
2023/01/04 08:05:23;;;;;;;0.87;0.20;;;;;;;;;;5037155;28;20354;-76
2023/01/04 08:07:52;;;;;;;0.67;0.20;;;;;;;;;;5030135;28;20034;-77
2023/01/04 08:10:18;;;;;;;0.87;0.40;;;;;;;;;;5046758;28;20160;-74
2023/01/04 08:12:44;;;;;;;0.20;0.20;;;;;;;;;;5029868;28;20104;-75
2023/01/04 08:15:10;;;;;;;0.33;0.20;;;;;;;;;;5027760;28;20087;-76
2023/01/04 08:17:36;;;;;;;0.20;0.20;;;;;;;;;;5029907;28;20056;-75
2023/01/04 08:20:02;;;;;;;1.37;0.37;;;;;;;;;;5040018;28;20037;-76
2023/01/04 08:22:28;;;;;;;0.37;0.20;;;;;;;;;;5021513;28;20128;-75
2023/01/04 08:25:10;;;;;;;2.50;0.20;;;;;;;;;;5029147;28;20350;-77
2023/01/04 08:27:40;;;;;;;1.33;0.30;;;;;;;;;;5044001;28;20041;-75
2023/01/04 08:30:07;;;;;;;2.33;0.30;;;;;;;;;;5027533;28;20033;-76
2023/01/04 08:32:33;;;;;;;0.70;0.20;;;;;;;;;;5042509;28;20048;-76
2023/01/04 08:34:59;;;;;;;2.00;0.30;;;;;;;;;;5027594;28;20116;-77
2023/01/04 08:37:28;;;;;;;1.73;0.40;;;;;;;;;;5027901;28;20025;-76
2023/01/04 08:39:54;;;;;;;1.13;0.30;;;;;;;;;;5022511;28;20040;-77
2023/01/04 08:42:20;;;;;;;1.73;0.43;;;;;;;;;;5037589;28;20048;-77
2023/01/04 08:44:46;;;;;;;0.30;0.20;;;;;;;;;;5036083;28;20025;-75
2023/01/04 08:47:12;;;;;;;0.53;0.30;;;;;;;;;;5019325;28;20037;-75
2023/01/04 08:49:38;;;;;;;3.37;0.30;;;;;;;;;;5019854;28;20044;-78
2023/01/04 08:52:05;;;;;;;0.90;0.27;;;;;;;;;;5035508;28;20029;-77
2023/01/04 08:54:32;;;;;;;0.50;0.30;;;;;;;;;;5026828;28;20033;-75
2023/01/04 08:56:58;;;;;;;1.47;0.40;;;;;;;;;;5021088;28;20042;-77
2023/01/04 08:59:24;;;;;;;1.90;0.70;;;;;;;;;;5019691;28;20025;-78
2023/01/04 09:01:50;;;;;;;1.03;0.30;;;;;;;;;;5042158;28;20025;-75
2023/01/04 09:04:16;;;;;;;0.83;0.30;;;;;;;;;;5025702;28;20123;-78
2023/01/04 09:06:42;;;;;;;0.50;0.30;;;;;;;;;;5018742;28;20095;-75
2023/01/04 09:09:08;;;;;;;1.17;0.37;;;;;;;;;;5034763;28;20029;-76
2023/01/04 09:11:34;;;;;;;2.07;0.50;;;;;;;;;;5016759;28;20041;-77
2023/01/04 09:14:03;;;;;;;1.10;0.23;;;;;;;;;;5018566;28;20033;-75
2023/01/04 09:16:31;;;;;;;1.07;0.40;;;;;;;;;;5025631;28;20126;-76
2023/01/04 09:18:57;;;;;;;0.67;0.30;;;;;;;;;;5041333;28;20108;-78
2023/01/04 09:21:23;;;;;;;0.80;0.20;;;;;;;;;;5022060;28;20052;-76
2023/01/04 09:23:49;;;;;;;0.50;0.40;;;;;;;;;;5041262;28;20034;-78
2023/01/04 09:26:17;;;;;;;1.33;0.40;;;;;;;;;;5017159;28;20048;-77
2023/01/04 09:28:43;;;;;;;0.70;0.40;;;;;;;;;;5026152;28;20040;-76
2023/01/04 09:31:11;;;;;;;0.97;0.40;;;;;;;;;;5026328;28;20044;-77
2023/01/04 09:33:40;;;;;;;0.90;0.30;;;;;;;;;;5032525;28;20030;-76
2023/01/04 09:36:06;;;;;;;0.40;0.10;;;;;;;;;;5019122;28;20052;-76
2023/01/04 09:38:33;;;;;;;0.70;0.40;;;;;;;;;;5034484;28;21026;-76
2023/01/04 09:40:59;;;;;;;0.60;0.20;;;;;;;;;;5037540;28;20052;-76
2023/01/04 09:43:28;;;;;;;0.70;0.10;;;;;;;;;;5041642;28;20033;-76
2023/01/04 09:45:56;;;;;;;0.50;0.20;;;;;;;;;;5044438;28;20072;-78
2023/01/04 09:48:24;;;;;;;0.53;0.30;;;;;;;;;;5026431;28;20025;-77
2023/01/04 09:50:53;;;;;;;0.70;0.30;;;;;;;;;;5042365;28;21653;-78
2023/01/04 09:53:31;;;;;;;0.77;0.40;;;;;;;;;;5036339;28;20060;-74
2023/01/04 09:56:01;;;;;;;1.53;0.37;;;;;;;;;;5044270;28;20037;-76
2023/01/04 09:58:30;;;;;;;0.53;0.30;;;;;;;;;;5020311;28;20141;-76
2023/01/04 10:01:15;;;;;;;0.57;0.30;;;;;;;;;;5037771;28;20029;-76
2023/01/04 10:03:53;;;;;;;0.50;0.30;;;;;;;;;;5041937;28;20354;-78
2023/01/04 10:06:19;;;;;;;3.20;0.30;;;;;;;;;;5028918;28;20041;-77
2023/01/04 10:08:45;;;;;;;0.67;0.20;;;;;;;;;;5044415;28;20033;-77
2023/01/04 10:11:11;;;;;;;1.57;0.30;;;;;;;;;;5022521;28;20044;-75
2023/01/04 10:13:42;;;;;;;0.40;0.20;;;;;;;;;;5044663;28;20052;-78
2023/01/04 10:16:29;;;;;;;0.60;0.30;;;;;;;;;;5029288;28;20103;-76
2023/01/04 10:19:06;;;;;;;0.87;0.50;;;;;;;;;;5015372;28;20056;-77
2023/01/04 10:21:35;;;;;;;4.10;0.70;;;;;;;;;;5045251;28;20075;-78
2023/01/04 10:24:01;;;;;;;2.57;0.53;;;;;;;;;;5023052;28;20037;-75
2023/01/04 10:26:30;;;;;;;1.10;0.50;;;;;;;;;;5028575;28;20048;-78
2023/01/04 10:29:15;;;;;;;3.90;0.80;;;;;;;;;;5027983;28;20040;-77
2023/01/04 10:31:45;;;;;;;1.27;0.30;;;;;;;;;;5028427;28;20476;-76
2023/01/04 10:34:11;;;;;;;1.47;0.40;;;;;;;;;;5036720;28;20040;-78
2023/01/04 10:36:37;;;;;;;1.63;0.30;;;;;;;;;;5042637;28;20033;-78
2023/01/04 10:39:11;;;;;;;0.80;0.30;;;;;;;;;;5036962;28;20029;-77
2023/01/04 10:41:55;;;;;;;1.77;0.30;;;;;;;;;;5028858;28;20033;-77
2023/01/04 10:44:50;;;;;;;1.53;0.30;;;;;;;;;;5038488;28;20932;-78
2023/01/04 10:47:29;;;;;;;1.73;0.40;;;;;;;;;;5039217;28;20041;-77
2023/01/04 10:49:56;;;;;;;1.47;0.40;;;;;;;;;;5023812;28;20059;-77
2023/01/04 10:52:27;;;;;;;1.00;0.40;;;;;;;;;;5029685;28;20030;-76
2023/01/04 10:55:16;;;;;;;4.63;0.50;;;;;;;;;;5038612;28;20088;-78
2023/01/04 10:57:52;;;;;;;0.97;0.40;;;;;;;;;;5028516;28;20152;-79
2023/01/04 11:00:38;;;;;;;2.20;0.57;;;;;;;;;;5030286;28;20037;-77
2023/01/04 11:03:13;;;;;;;1.93;0.40;;;;;;;;;;5020648;28;20030;-78
2023/01/04 11:05:41;;;;;;;2.53;0.40;;;;;;;;;;5037382;28;20124;-76
2023/01/04 11:08:10;;;;;;;3.83;0.60;;;;;;;;;;5024843;28;20021;-78
2023/01/04 11:10:39;;;;;;;3.27;0.50;;;;;;;;;;5029885;28;20044;-76
2023/01/04 11:13:06;;;;;;;1.17;0.40;;;;;;;;;;5025786;28;20067;-78
2023/01/04 11:15:32;;;;;;;1.93;0.53;;;;;;;;;;5044681;28;20129;-77
2023/01/04 11:18:00;;;;;;;1.30;0.37;;;;;;;;;;5035802;28;20382;-76
2023/01/04 11:20:26;;;;;;;4.13;0.63;;;;;;;;;;5023774;28;20461;-77
2023/01/04 11:22:55;;;;;;;2.47;0.40;;;;;;;;;;5037609;28;20036;-78
2023/01/04 11:25:22;;;;;;;0.40;0.23;;;;;;;;;;5044709;28;20040;-76
2023/01/04 11:28:18;;;;;;;3.73;0.30;;;;;;;;;;5026051;28;20112;-76
2023/01/04 11:30:50;;;;;;;1.17;0.30;;;;;;;;;;5034910;28;20055;-77
2023/01/04 11:33:21;;;;;;;2.95;0.40;;;;;;;;;;5038481;28;20362;-77
2023/01/04 11:35:51;;;;;;;1.77;0.20;;;;;;;;;;5022106;28;20037;-76
2023/01/04 11:38:17;;;;;;;0.30;0.20;;;;;;;;;;5042367;28;20064;-78
2023/01/04 11:41:06;;;;;;;1.17;0.40;;;;;;;;;;5043967;28;21730;-77
2023/01/04 11:43:33;;;;;;;0.40;0.37;;;;;;;;;;5037526;28;20061;-78
2023/01/04 11:45:59;;;;;;;1.10;0.30;;;;;;;;;;5043980;28;20044;-76
2023/01/04 11:48:34;;;;;;;0.80;0.13;;;;;;;;;;5028175;28;20025;-76
2023/01/04 11:51:01;;;;;;;0.63;0.20;;;;;;;;;;5028031;28;20025;-75
2023/01/04 11:53:31;;;;;;;0.73;0.30;;;;;;;;;;5045374;28;20037;-77
2023/01/04 11:56:13;;;;;;;0.40;0.20;;;;;;;;;;5023363;28;20109;-77
2023/01/04 11:58:42;;;;;;;0.10;0.10;;;;;;;;;;5029531;28;20379;-76
2023/01/04 12:01:22;;;;;;;0.20;0.20;;;;;;;;;;5023495;28;20126;-77
2023/01/04 12:03:48;;;;;;;0.57;0.20;;;;;;;;;;5043811;28;20091;-76
2023/01/04 12:06:22;;;;;;;0.10;0.10;;;;;;;;;;5043384;28;20041;-77
2023/01/04 12:08:48;;;;;;;0.40;0.30;;;;;;;;;;5030745;28;20036;-76
2023/01/04 12:11:19;;;;;;;4.33;0.20;;;;;;;;;;5020296;28;20041;-77
2023/01/04 12:13:45;;;;;;;0.20;0.20;;;;;;;;;;5044131;28;20045;-75
2023/01/04 12:16:40;;;;;;;0.20;0.20;;;;;;;;;;5030889;28;20378;-77
2023/01/04 12:19:08;;;;;;;0.27;0.10;;;;;;;;;;5037053;28;20048;-77
2023/01/04 12:21:34;;;;;;;2.67;0.30;;;;;;;;;;5027614;28;20089;-77
2023/01/04 12:24:01;;;;;;;0.57;0.30;;;;;;;;;;5041755;28;20095;-78
2023/01/04 12:26:27;;;;;;;0.10;0.10;;;;;;;;;;5026295;28;20712;-77
2023/01/04 12:29:11;;;;;;;0.60;0.40;;;;;;;;;;5042542;28;20037;-77
2023/01/04 12:31:38;;;;;;;1.33;0.20;;;;;;;;;;5042238;28;20044;-75
2023/01/04 12:34:27;;;;;;;0.10;0.10;;;;;;;;;;5036734;28;20033;-77
2023/01/04 12:36:54;;;;;;;0.10;0.10;;;;;;;;;;5023235;28;20037;-76
2023/01/04 12:39:27;;;;;;;0.10;0.10;;;;;;;;;;5026846;28;20030;-77
2023/01/04 12:41:59;;;;;;;0.10;0.10;;;;;;;;;;5035254;28;20033;-77
2023/01/04 12:44:37;;;;;;;1.02;0.20;;;;;;;;;;5034429;28;20029;-78
2023/01/04 12:49:51;;;;;;;0.20;0.10;;;;;;;;;;5027814;28;20049;-78
2023/01/04 12:52:17;;;;;;;0.10;0.10;;;;;;;;;;5043600;28;20069;-77
2023/01/04 12:54:46;;;;;;;0.30;0.10;;;;;;;;;;5035177;28;20037;-75
2023/01/04 12:57:30;;;;;;;0.10;0.10;;;;;;;;;;5040456;28;20040;-76
2023/01/04 13:00:01;;;;;;;0.30;0.13;;;;;;;;;;5033378;28;20099;-76
2023/01/04 13:02:27;;;;;;;0.10;0.10;;;;;;;;;;5025162;28;20034;-76
2023/01/04 13:04:54;;;;;;;0.10;0.10;;;;;;;;;;5021548;28;20040;-77
2023/01/04 13:07:40;;;;;;;2.00;0.10;;;;;;;;;;5034685;28;20037;-78
2023/01/04 13:10:25;;;;;;;0.47;0.20;;;;;;;;;;5024994;28;20461;-78
2023/01/04 13:12:54;;;;;;;0.80;0.13;;;;;;;;;;5036279;28;20056;-76
2023/01/04 13:15:35;;;;;;;1.40;0.20;;;;;;;;;;5044099;28;20041;-76
2023/01/04 13:18:02;;;;;;;1.17;0.30;;;;;;;;;;5036905;28;20030;-77
2023/01/04 13:20:29;;;;;;;0.70;0.10;;;;;;;;;;5025713;28;20040;-77
2023/01/04 13:22:58;;;;;;;0.37;0.37;;;;;;;;;;5040865;28;20032;-76
2023/01/04 13:25:27;;;;;;;0.10;0.10;;;;;;;;;;5041845;28;20557;-78
2023/01/04 13:27:57;;;;;;;0.10;0.10;;;;;;;;;;5019364;28;20041;-77
2023/01/04 13:30:31;;;;;;;0.20;0.10;;;;;;;;;;5041775;28;20120;-76
2023/01/04 13:32:57;;;;;;;1.07;0.20;;;;;;;;;;5016188;28;20041;-78
2023/01/04 13:35:26;;;;;;;0.17;0.10;;;;;;;;;;5042246;28;20421;-77
2023/01/04 13:37:52;;;;;;;1.40;0.17;;;;;;;;;;5024694;28;20119;-77
2023/01/04 13:40:23;;;;;;;0.10;0.10;;;;;;;;;;5045885;28;20029;-76
2023/01/04 13:42:53;;;;;;;2.30;0.43;;;;;;;;;;5024227;28;20033;-78
2023/01/04 13:45:19;;;;;;;0.67;0.10;;;;;;;;;;5027404;28;20060;-76
2023/01/04 13:47:46;;;;;;;0.10;0.10;;;;;;;;;;5038725;28;20052;-76
2023/01/04 13:50:28;;;;;;;0.20;0.20;;;;;;;;;;5030278;28;20644;-76
2023/01/04 13:52:54;;;;;;;0.17;0.10;;;;;;;;;;5047667;28;20053;-77
2023/01/04 13:55:26;;;;;;;0.10;0.10;;;;;;;;;;5040972;28;20458;-75
2023/01/04 13:58:01;;;;;;;0.10;0.10;;;;;;;;;;5048723;28;20033;-77
2023/01/04 14:00:31;;;;;;;0.53;0.20;;;;;;;;;;5041480;28;20041;-77
2023/01/04 14:03:09;;;;;;;0.47;0.10;;;;;;;;;;5027562;28;20026;-77
2023/01/04 14:05:36;;;;;;;0.20;0.20;;;;;;;;;;5029552;28;20025;-77
2023/01/04 14:08:03;;;;;;;0.20;0.20;;;;;;;;;;5046916;28;20056;-77
2023/01/04 14:10:31;;;;;;;0.43;0.13;;;;;;;;;;5044923;28;20037;-76
2023/01/04 14:12:57;;;;;;;0.43;0.10;;;;;;;;;;5032183;28;20029;-76
2023/01/04 14:15:24;;;;;;;0.27;0.10;;;;;;;;;;5038647;28;20121;-76
2023/01/04 14:17:50;;;;;;;0.30;0.20;;;;;;;;;;5028528;28;20049;-77
2023/01/04 14:20:21;;;;;;;0.67;0.17;;;;;;;;;;5044567;28;20041;-78
2023/01/04 14:22:47;;;;;;;0.20;0.20;;;;;;;;;;5026002;28;20053;-78
2023/01/04 14:25:32;;;;;;;0.93;0.10;;;;;;;;;;5029298;28;20091;-77
2023/01/04 14:28:17;;;;;;;0.10;0.10;;;;;;;;;;5025526;28;20112;-77
2023/01/04 14:30:44;;;;;;;0.63;0.17;;;;;;;;;;5045109;28;20512;-76
2023/01/04 14:33:22;;;;;;;0.30;0.20;;;;;;;;;;5038792;28;20044;-77
2023/01/04 14:36:00;;;;;;;0.10;0.10;;;;;;;;;;5037165;28;20048;-78
2023/01/04 14:38:26;;;;;;;0.20;0.20;;;;;;;;;;5037223;28;20029;-75
2023/01/04 14:40:53;;;;;;;0.47;0.20;;;;;;;;;;5024414;28;20117;-75
2023/01/04 14:43:36;;;;;;;0.10;0.10;;;;;;;;;;5044987;28;20044;-77
2023/01/04 14:46:02;;;;;;;1.47;0.10;;;;;;;;;;5027644;28;20037;-76
2023/01/04 14:48:29;;;;;;;0.10;0.10;;;;;;;;;;5026722;28;20056;-76
2023/01/04 14:50:55;;;;;;;0.37;0.20;;;;;;;;;;5023328;28;20339;-76
2023/01/04 14:53:22;;;;;;;0.30;0.20;;;;;;;;;;5036626;28;20727;-77
2023/01/04 14:55:48;;;;;;;0.33;0.20;;;;;;;;;;5022339;28;20868;-76
2023/01/04 14:58:14;;;;;;;0.20;0.20;;;;;;;;;;5037532;28;20034;-76
2023/01/04 15:00:40;;;;;;;0.43;0.20;;;;;;;;;;5027611;28;20049;-76
2023/01/04 15:03:06;;;;;;;0.30;0.10;;;;;;;;;;5021119;28;20022;-78
2023/01/04 15:05:32;;;;;;;0.60;0.23;;;;;;;;;;5019202;28;20049;-75
2023/01/04 15:08:00;;;;;;;0.53;0.30;;;;;;;;;;5027615;28;20033;-76
2023/01/04 15:10:27;;;;;;;2.20;0.40;;;;;;;;;;5021463;28;20037;-77
2023/01/04 15:12:53;;;;;;;1.13;0.40;;;;;;;;;;5037171;28;20123;-77
2023/01/04 15:15:20;;;;;;;1.30;0.20;;;;;;;;;;5043618;28;20091;-78
2023/01/04 15:17:46;;;;;;;0.30;0.20;;;;;;;;;;5043544;28;20041;-78
2023/01/04 15:20:13;;;;;;;0.97;0.30;;;;;;;;;;5028147;28;20065;-78
2023/01/04 15:22:39;;;;;;;0.40;0.10;;;;;;;;;;5042570;28;20025;-77
2023/01/04 15:25:06;;;;;;;0.20;0.10;;;;;;;;;;5035624;28;20469;-75
2023/01/04 15:27:32;;;;;;;0.37;0.20;;;;;;;;;;5025119;28;20052;-77
2023/01/04 15:29:58;;;;;;;0.20;0.10;;;;;;;;;;5042527;28;20033;-76
2023/01/04 15:32:26;;;;;;;0.80;0.20;;;;;;;;;;5042774;28;20064;-75
2023/01/04 15:34:52;;;;;;;0.30;0.30;;;;;;;;;;5023564;28;20067;-77
2023/01/04 15:37:21;;;;;;;0.30;0.20;;;;;;;;;;5042228;28;20044;-75
2023/01/04 15:39:49;;;;;;;0.53;0.30;;;;;;;;;;5021263;28;20116;-77